createdAt,value
2019-04-26T00:01:11.865Z,7.40
2019-04-26T00:03:59.270Z,7.40
2019-04-26T00:06:48.116Z,7.50
2019-04-26T00:09:37.415Z,7.40
2019-04-26T00:12:26.654Z,7.50
2019-04-26T00:15:16.618Z,7.40
2019-04-26T00:18:05.171Z,7.30
2019-04-26T00:20:52.591Z,7.20
2019-04-26T00:23:40.096Z,7.10
2019-04-26T00:26:28.183Z,7.00
2019-04-26T00:29:16.830Z,7.00
2019-04-26T00:32:04.502Z,6.90
2019-04-26T00:34:52.014Z,6.90
2019-04-26T00:37:39.698Z,6.90
2019-04-26T00:40:27.465Z,6.80
2019-04-26T00:43:15.077Z,6.80
2019-04-26T00:46:03.718Z,6.80
2019-04-26T00:48:54.133Z,6.70
2019-04-26T00:51:42.069Z,6.60
2019-04-26T00:54:30.081Z,6.60
2019-04-26T00:57:18.347Z,6.50
2019-04-26T01:00:06.566Z,6.40
2019-04-26T01:02:55.954Z,6.40
2019-04-26T01:05:43.458Z,6.30
2019-04-26T01:08:30.860Z,6.40
2019-04-26T01:11:19.644Z,6.30
2019-04-26T01:14:07.462Z,6.40
2019-04-26T01:16:55.024Z,6.40
2019-04-26T01:19:45.415Z,6.40
2019-04-26T01:22:35.921Z,6.40
2019-04-26T01:25:29.326Z,6.50
2019-04-26T01:28:19.810Z,6.50
2019-04-26T01:31:08.198Z,6.50
2019-04-26T01:37:02.924Z,6.40
2019-04-26T01:39:55.603Z,6.50
2019-04-26T01:42:56.786Z,6.50
2019-04-26T01:45:48.811Z,6.40
2019-04-26T01:48:46.664Z,6.20
2019-04-26T01:51:40.660Z,6.20
2019-04-26T01:54:34.694Z,6.20
2019-04-26T01:57:25.239Z,6.10
2019-04-26T02:00:15.919Z,6.10
2019-04-26T02:03:07.858Z,6.10
2019-04-26T02:05:55.571Z,6.20
2019-04-26T02:08:43.032Z,6.50
2019-04-26T02:11:30.839Z,6.60
2019-04-26T02:14:18.536Z,6.50
2019-04-26T02:17:06.040Z,6.50
2019-04-26T02:19:54.537Z,6.60
2019-04-26T02:22:50.127Z,6.60
2019-04-26T02:25:37.714Z,6.80
2019-04-26T02:28:26.395Z,7.10
2019-04-26T02:31:14.281Z,7.20
2019-04-26T02:34:03.257Z,7.30
2019-04-26T02:36:58.377Z,7.30
2019-04-26T02:39:43.505Z,7.40
2019-04-26T02:42:38.094Z,7.50
2019-04-26T02:45:45.452Z,7.50
2019-04-26T02:48:40.707Z,7.50
2019-04-26T02:51:38.238Z,7.50
2019-04-26T02:54:47.141Z,7.60
2019-04-26T02:57:38.907Z,7.70
2019-04-26T03:00:26.419Z,7.80
2019-04-26T03:03:14.348Z,7.80
2019-04-26T03:06:01.878Z,7.80
2019-04-26T03:08:50.548Z,7.80
2019-04-26T03:11:44.225Z,7.80
2019-04-26T03:14:41.862Z,7.90
2019-04-26T03:17:38.165Z,7.90
2019-04-26T03:20:40.049Z,8.00
2019-04-26T03:23:55.593Z,8.20
2019-04-26T03:26:44.165Z,8.30
2019-04-26T03:29:40.897Z,8.50
2019-04-26T03:32:50.269Z,8.60
2019-04-26T03:35:56.310Z,8.60
2019-04-26T03:38:59.517Z,8.70
2019-04-26T03:42:03.474Z,8.80
2019-04-26T03:45:02.927Z,8.80
2019-04-26T03:48:02.545Z,8.90
2019-04-26T03:51:10.128Z,8.90
2019-04-26T03:54:15.513Z,9.00
2019-04-26T03:57:31.069Z,9.10
2019-04-26T04:00:27.894Z,9.00
2019-04-26T04:03:28.557Z,9.00
2019-04-26T04:06:20.615Z,9.10
2019-04-26T04:09:09.580Z,9.10
2019-04-26T04:12:12.472Z,9.10
2019-04-26T04:15:09.694Z,9.20
2019-04-26T04:18:01.005Z,9.40
2019-04-26T04:21:08.263Z,9.40
2019-04-26T04:24:04.700Z,9.40
2019-04-26T04:27:12.618Z,9.40
2019-04-26T04:30:12.355Z,9.60
2019-04-26T04:33:30.249Z,9.60
2019-04-26T04:36:21.144Z,9.70
2019-04-26T04:39:13.221Z,9.80
2019-04-26T04:42:23.702Z,9.80
2019-04-26T04:45:42.465Z,9.90
2019-04-26T04:48:51.167Z,10.00
2019-04-26T04:52:00.217Z,10.00
2019-04-26T04:55:06.643Z,10.10
2019-04-26T04:58:09.783Z,10.10
2019-04-26T05:01:34.933Z,10.10
2019-04-26T05:04:28.203Z,10.10
2019-04-26T05:07:51.485Z,10.10
2019-04-26T05:10:48.525Z,10.20
2019-04-26T05:13:41.872Z,10.10
2019-04-26T05:16:45.547Z,10.00
2019-04-26T05:20:08.991Z,10.10
2019-04-26T05:23:08.463Z,10.00
2019-04-26T05:26:24.608Z,10.00
2019-04-26T05:29:36.280Z,10.00
2019-04-26T05:32:50.494Z,10.00
2019-04-26T05:35:58.372Z,10.00
2019-04-26T05:38:49.436Z,9.90
2019-04-26T05:42:08.871Z,10.00
2019-04-26T05:45:17.385Z,9.90
2019-04-26T05:48:47.805Z,9.80
2019-04-26T05:52:05.352Z,9.80
2019-04-26T05:55:18.495Z,9.90
2019-04-26T05:58:29.706Z,9.80
2019-04-26T06:01:42.792Z,9.80
2019-04-26T06:04:49.453Z,9.80
2019-04-26T06:07:56.383Z,9.80
2019-04-26T06:10:47.018Z,9.80
2019-04-26T06:14:06.504Z,9.80
2019-04-26T06:17:25.341Z,9.80
2019-04-26T06:20:24.537Z,9.80
2019-04-26T06:23:36.496Z,9.70
2019-04-26T06:27:13.791Z,9.60
2019-04-26T06:30:11.784Z,9.50
2019-04-26T06:33:15.174Z,9.40
2019-04-26T06:36:07.502Z,9.40
2019-04-26T06:39:11.612Z,9.30
2019-04-26T06:42:17.002Z,9.30
2019-04-26T06:45:09.834Z,9.20
2019-04-26T06:48:17.044Z,9.20
2019-04-26T06:51:07.785Z,9.20
2019-04-26T06:54:11.533Z,9.30
2019-04-26T06:57:36.603Z,9.30
2019-04-26T07:00:29.270Z,9.50
2019-04-26T07:03:22.981Z,9.60
2019-04-26T07:06:13.861Z,9.80
2019-04-26T07:09:08.261Z,10.00
2019-04-26T07:12:21.523Z,10.10
2019-04-26T07:15:28.368Z,10.20
2019-04-26T07:18:28.076Z,10.30
2019-04-26T07:21:29.676Z,10.30
2019-04-26T07:24:39.809Z,10.40
2019-04-26T07:27:33.386Z,10.50
2019-04-26T07:30:26.825Z,10.70
2019-04-26T07:33:27.081Z,10.70
2019-04-26T07:36:17.538Z,10.80
2019-04-26T07:39:19.419Z,10.70
2019-04-26T07:42:33.536Z,10.60
2019-04-26T07:45:37.281Z,10.50
2019-04-26T07:48:47.131Z,10.50
2019-04-26T07:52:03.376Z,10.50
2019-04-26T07:55:28.599Z,10.60
2019-04-26T07:58:48.791Z,10.50
2019-04-26T08:01:50.634Z,10.50
2019-04-26T08:04:41.234Z,10.40
2019-04-26T08:07:33.863Z,10.30
2019-04-26T08:10:25.074Z,10.30
2019-04-26T08:13:17.553Z,10.40
2019-04-26T08:16:25.985Z,10.50
2019-04-26T08:19:16.572Z,10.50
2019-04-26T08:22:17.954Z,10.40
2019-04-26T08:24:58.792Z,10.40
2019-04-26T08:27:48.664Z,10.70
2019-04-26T08:30:40.588Z,10.60
2019-04-26T08:33:33.596Z,10.90
2019-04-26T08:36:27.159Z,11.00
2019-04-26T08:39:24.592Z,11.00
2019-04-26T08:42:18.135Z,10.90
2019-04-26T08:45:10.119Z,11.00
2019-04-26T08:48:10.667Z,10.90
2019-04-26T08:51:02.541Z,10.90
2019-04-26T08:53:52.345Z,10.90
2019-04-26T08:56:42.934Z,11.00
2019-04-26T08:59:33.850Z,11.10
2019-04-26T09:02:37.672Z,11.10
2019-04-26T09:05:32.941Z,11.20
2019-04-26T09:08:23.875Z,11.40
2019-04-26T09:11:25.873Z,11.40
2019-04-26T09:14:09.631Z,11.30
2019-04-26T09:16:57.065Z,11.40
2019-04-26T09:19:44.656Z,11.50
2019-04-26T09:22:33.827Z,11.50
2019-04-26T09:25:34.520Z,11.50
2019-04-26T09:28:31.404Z,11.40
2019-04-26T09:31:21.155Z,11.20
2019-04-26T09:34:16.397Z,11.10
2019-04-26T09:37:03.794Z,11.00
2019-04-26T09:39:51.474Z,11.10
2019-04-26T09:42:46.570Z,11.10
2019-04-26T09:45:41.748Z,11.20
2019-04-26T09:48:31.348Z,11.40
2019-04-26T09:51:19.634Z,11.50
2019-04-26T09:54:07.288Z,11.70
2019-04-26T09:56:55.293Z,11.90
2019-04-26T09:59:42.718Z,12.20
2019-04-26T10:02:33.914Z,12.10
2019-04-26T10:05:22.190Z,12.00
2019-04-26T10:08:12.974Z,12.00
2019-04-26T10:10:59.310Z,12.30
2019-04-26T10:13:48.416Z,12.60
2019-04-26T10:16:42.406Z,12.80
2019-04-26T10:19:47.272Z,13.10
2019-04-26T10:22:34.825Z,13.40
2019-04-26T10:25:22.554Z,13.70
2019-04-26T10:28:11.775Z,13.80
2019-04-26T10:30:59.365Z,13.80
2019-04-26T10:33:46.813Z,13.50
2019-04-26T10:36:34.498Z,13.50
2019-04-26T10:39:23.593Z,13.40
2019-04-26T10:42:11.204Z,13.30
2019-04-26T10:44:58.794Z,13.30
2019-04-26T10:50:34.459Z,13.00
2019-04-26T10:53:30.099Z,12.60
2019-04-26T10:56:36.180Z,12.40
2019-04-26T10:59:25.201Z,12.30
2019-04-26T11:02:14.877Z,12.30
2019-04-26T11:05:02.813Z,12.40
2019-04-26T11:07:50.253Z,12.30
2019-04-26T11:10:47.906Z,12.30
2019-04-26T11:13:28.162Z,12.20
2019-04-26T11:16:15.900Z,12.20
2019-04-26T11:19:03.270Z,12.20
2019-04-26T11:21:51.056Z,12.30
2019-04-26T11:24:40.661Z,12.50
2019-04-26T11:27:28.533Z,12.60
2019-04-26T11:30:20.792Z,12.50
2019-04-26T11:33:07.228Z,12.40
2019-04-26T11:35:55.775Z,12.50
2019-04-26T11:38:43.284Z,12.80
2019-04-26T11:41:33.983Z,13.00
2019-04-26T11:44:23.397Z,12.90
2019-04-26T11:47:09.325Z,12.80
2019-04-26T11:49:57.093Z,12.90
2019-04-26T11:52:44.539Z,12.70
2019-04-26T11:55:31.933Z,12.70
2019-04-26T11:58:22.519Z,12.90
2019-04-26T12:01:10.486Z,13.30
2019-04-26T12:04:08.474Z,14.00
2019-04-26T12:07:03.832Z,14.80
2019-04-26T12:09:53.160Z,15.40
2019-04-26T12:12:43.118Z,15.60
2019-04-26T12:15:30.805Z,16.10
2019-04-26T12:18:18.521Z,16.10
2019-04-26T12:21:06.083Z,15.80
2019-04-26T12:23:55.578Z,15.50
2019-04-26T12:26:46.164Z,15.40
2019-04-26T12:29:32.313Z,15.50
2019-04-26T12:32:19.926Z,15.60
2019-04-26T12:35:07.802Z,15.90
2019-04-26T12:37:55.833Z,16.60
2019-04-26T12:40:46.262Z,16.60
2019-04-26T12:43:33.749Z,16.80
2019-04-26T12:46:27.098Z,16.70
2019-04-26T12:49:12.680Z,16.50
2019-04-26T12:52:00.532Z,16.30
2019-04-26T12:54:48.306Z,16.00
2019-04-26T12:57:36.554Z,15.60
2019-04-26T13:00:27.460Z,15.30
2019-04-26T13:03:20.416Z,15.10
2019-04-26T13:06:05.437Z,15.30
2019-04-26T13:08:55.984Z,15.80
2019-04-26T13:12:00.942Z,16.00
2019-04-26T13:14:56.473Z,16.00
2019-04-26T13:17:45.608Z,15.90
2019-04-26T13:20:33.105Z,15.80
2019-04-26T13:23:20.908Z,15.60
2019-04-26T13:26:08.361Z,15.40
2019-04-26T13:28:57.070Z,15.00
2019-04-26T13:31:45.553Z,14.70
2019-04-26T13:34:33.369Z,14.30
2019-04-26T13:37:22.719Z,14.00
2019-04-26T13:40:10.105Z,13.90
2019-04-26T13:42:57.708Z,14.00
2019-04-26T13:45:47.142Z,14.10
2019-04-26T13:48:54.346Z,14.30
2019-04-26T13:51:44.457Z,14.30
2019-04-26T13:54:31.966Z,14.20
2019-04-26T13:57:19.476Z,14.00
2019-04-26T14:00:11.515Z,13.80
2019-04-26T14:02:57.201Z,13.90
2019-04-26T14:05:44.872Z,13.90
2019-04-26T14:08:32.585Z,13.90
2019-04-26T14:11:27.905Z,13.90
2019-04-26T14:14:09.524Z,14.00
2019-04-26T14:16:57.267Z,14.10
2019-04-26T14:19:49.190Z,14.40
2019-04-26T14:22:37.038Z,14.70
2019-04-26T14:25:42.429Z,14.90
2019-04-26T14:28:29.891Z,14.90
2019-04-26T14:31:18.239Z,14.90
2019-04-26T14:34:07.023Z,14.70
2019-04-26T14:37:05.952Z,14.60
2019-04-26T14:39:50.761Z,14.50
2019-04-26T14:42:41.996Z,14.50
2019-04-26T14:45:24.338Z,14.80
2019-04-26T14:48:20.545Z,15.10
2019-04-26T14:51:07.945Z,15.40
2019-04-26T14:53:51.052Z,15.60
2019-04-26T14:56:51.526Z,15.90
2019-04-26T14:59:46.995Z,16.00
2019-04-26T15:02:35.249Z,16.10
2019-04-26T15:05:27.656Z,16.30
2019-04-26T15:08:15.599Z,16.10
2019-04-26T15:11:04.456Z,16.10
2019-04-26T15:13:52.384Z,16.00
2019-04-26T15:16:41.414Z,16.00
2019-04-26T15:19:29.265Z,16.00
2019-04-26T15:22:16.664Z,15.80
2019-04-26T15:25:07.720Z,15.70
2019-04-26T15:27:56.845Z,15.50
2019-04-26T15:30:46.808Z,15.50
2019-04-26T15:33:36.085Z,15.50
2019-04-26T15:36:23.890Z,15.40
2019-04-26T15:39:19.714Z,15.60
2019-04-26T15:42:16.448Z,15.90
2019-04-26T15:45:25.094Z,16.00
2019-04-26T15:48:26.984Z,15.80
2019-04-26T15:51:20.077Z,15.80
2019-04-26T15:54:06.244Z,15.60
2019-04-26T15:56:55.226Z,15.30
2019-04-26T15:59:43.149Z,15.10
2019-04-26T16:02:32.107Z,14.90
2019-04-26T16:05:19.659Z,14.60
2019-04-26T16:08:07.300Z,14.20
2019-04-26T16:10:54.913Z,14.20
2019-04-26T16:13:46.656Z,14.00
2019-04-26T16:16:34.428Z,13.80
2019-04-26T16:19:21.748Z,13.60
2019-04-26T16:22:09.132Z,13.50
2019-04-26T16:24:58.166Z,13.40
2019-04-26T16:30:37.685Z,13.10
2019-04-26T16:33:35.856Z,13.00
2019-04-26T16:36:24.030Z,13.00
2019-04-26T16:39:13.738Z,12.90
2019-04-26T16:42:06.773Z,13.00
2019-04-26T16:44:50.826Z,13.00
2019-04-26T16:47:45.067Z,12.90
2019-04-26T16:50:31.588Z,12.90
2019-04-26T16:53:41.430Z,12.90
2019-04-26T16:56:06.368Z,12.80
2019-04-26T16:58:55.056Z,12.70
2019-04-26T17:01:46.741Z,12.60
2019-04-26T17:04:35.932Z,12.50
2019-04-26T17:07:25.615Z,12.50
2019-04-26T17:10:12.123Z,12.30
2019-04-26T17:12:59.886Z,12.30
2019-04-26T17:15:47.686Z,12.20
2019-04-26T17:18:35.264Z,12.10
2019-04-26T17:21:25.569Z,12.10
2019-04-26T17:24:17.932Z,12.10
2019-04-26T17:27:09.719Z,12.00
2019-04-26T17:29:56.340Z,11.90
2019-04-26T17:32:47.498Z,11.90
2019-04-26T17:35:36.630Z,11.90
2019-04-26T17:38:23.253Z,11.80
2019-04-26T17:41:13.545Z,11.80
2019-04-26T17:44:08.328Z,11.80
2019-04-26T17:46:56.258Z,11.70
2019-04-26T17:49:41.709Z,11.60
2019-04-26T17:52:29.744Z,11.70
2019-04-26T17:55:17.793Z,11.60
2019-04-26T17:58:12.065Z,11.60
2019-04-26T18:00:56.424Z,11.60
2019-04-26T18:03:52.277Z,11.70
2019-04-26T18:06:35.395Z,11.60
2019-04-26T18:09:39.008Z,11.50
2019-04-26T18:12:12.732Z,11.50
2019-04-26T18:15:06.149Z,11.40
2019-04-26T18:17:54.056Z,11.30
2019-04-26T18:21:02.983Z,11.30
2019-04-26T18:23:54.721Z,11.30
2019-04-26T18:26:40.992Z,11.20
2019-04-26T18:29:29.653Z,11.00
2019-04-26T18:32:18.132Z,10.90
2019-04-26T18:35:09.217Z,10.90
2019-04-26T18:37:56.852Z,10.70
2019-04-26T18:41:00.096Z,10.70
2019-04-26T18:43:34.381Z,10.50
2019-04-26T18:46:24.094Z,10.40
2019-04-26T18:56:07.680Z,10.20
2019-04-26T18:58:55.893Z,10.10
2019-04-26T19:01:43.361Z,10.10
2019-04-26T19:04:30.888Z,10.00
2019-04-26T19:07:30.999Z,9.90
2019-04-26T19:10:09.568Z,9.80
2019-04-26T19:13:00.156Z,9.80
2019-04-26T19:15:51.442Z,9.80
2019-04-26T19:18:46.513Z,9.70
2019-04-26T19:21:50.649Z,9.70
2019-04-26T19:24:38.684Z,9.70
2019-04-26T19:27:27.582Z,9.60
2019-04-26T19:30:16.325Z,9.60
2019-04-26T19:33:04.223Z,9.60
2019-04-26T19:35:51.961Z,9.50
2019-04-26T19:38:45.223Z,9.50
2019-04-26T19:41:28.851Z,9.50
2019-04-26T19:44:18.812Z,9.50
2019-04-26T19:47:13.883Z,9.40
2019-04-26T19:50:11.247Z,9.40
2019-04-26T19:53:17.763Z,9.40
2019-04-26T19:56:13.402Z,9.40
2019-04-26T19:59:00.953Z,10.70
2019-04-26T20:01:48.433Z,9.30
2019-04-26T20:04:36.193Z,9.30
2019-04-26T20:07:24.210Z,9.20
2019-04-26T20:10:13.077Z,9.20
2019-04-26T20:13:02.428Z,9.20
2019-04-26T20:15:52.738Z,9.20
2019-04-26T20:18:39.862Z,9.20
2019-04-26T20:21:27.621Z,9.10
2019-04-26T20:24:18.313Z,9.20
2019-04-26T20:27:08.957Z,9.10
2019-04-26T20:29:57.508Z,9.10
2019-04-26T20:32:46.295Z,9.10
2019-04-26T20:35:33.696Z,9.10
2019-04-26T21:57:36.238Z,8.50
2019-04-26T23:04:45.151Z,7.80
2019-04-26T23:24:25.045Z,7.50
